地図

経路データ

SID SEASON NUMBER BASIN SUBBASIN NAME ISO_TIME NATURE LAT LON WMO_WIND WMO_PRES WMO_AGENCY TRACK_TYPE DIST2LAND LANDFALL IFLAG USA_AGENCY USA_ATCF_ID USA_LAT USA_LON USA_RECORD USA_STATUS USA_WIND USA_PRES USA_SSHS USA_R34_NE USA_R34_SE USA_R34_SW USA_R34_NW USA_R50_NE USA_R50_SE USA_R50_SW USA_R50_NW USA_R64_NE USA_R64_SE USA_R64_SW USA_R64_NW USA_POCI USA_ROCI USA_RMW USA_EYE TOKYO_LAT TOKYO_LON TOKYO_GRADE TOKYO_WIND TOKYO_PRES TOKYO_R50_DIR TOKYO_R50_LONG TOKYO_R50_SHORT TOKYO_R30_DIR TOKYO_R30_LONG TOKYO_R30_SHORT TOKYO_LAND CMA_LAT CMA_LON CMA_CAT CMA_WIND CMA_PRES HKO_LAT HKO_LON HKO_CAT HKO_WIND HKO_PRES NEWDELHI_LAT NEWDELHI_LON NEWDELHI_GRADE NEWDELHI_WIND NEWDELHI_PRES NEWDELHI_CI NEWDELHI_DP NEWDELHI_POCI REUNION_LAT REUNION_LON REUNION_TYPE REUNION_WIND REUNION_PRES REUNION_TNUM REUNION_CI REUNION_RMW REUNION_R34_NE REUNION_R34_SE REUNION_R34_SW REUNION_R34_NW REUNION_R50_NE REUNION_R50_SE REUNION_R50_SW REUNION_R50_NW REUNION_R64_NE REUNION_R64_SE REUNION_R64_SW REUNION_R64_NW BOM_LAT BOM_LON BOM_TYPE BOM_WIND BOM_PRES BOM_TNUM BOM_CI BOM_RMW BOM_R34_NE BOM_R34_SE BOM_R34_SW BOM_R34_NW BOM_R50_NE BOM_R50_SE BOM_R50_SW BOM_R50_NW BOM_R64_NE BOM_R64_SE BOM_R64_SW BOM_R64_NW BOM_ROCI BOM_POCI BOM_EYE BOM_POS_METHOD BOM_PRES_METHOD NADI_LAT NADI_LON NADI_CAT NADI_WIND NADI_PRES WELLINGTON_LAT WELLINGTON_LON WELLINGTON_WIND WELLINGTON_PRES DS824_LAT DS824_LON DS824_STAGE DS824_WIND DS824_PRES TD9636_LAT TD9636_LON TD9636_STAGE TD9636_WIND TD9636_PRES TD9635_LAT TD9635_LON TD9635_WIND TD9635_PRES TD9635_ROCI NEUMANN_LAT NEUMANN_LON NEUMANN_CLASS NEUMANN_WIND NEUMANN_PRES MLC_LAT MLC_LON MLC_CLASS MLC_WIND MLC_PRES USA_GUST BOM_GUST BOM_GUST_PER REUNION_GUST REUNION_GUST_PER USA_SEAHGT USA_SEARAD_NE USA_SEARAD_SE USA_SEARAD_SW USA_SEARAD_NW STORM_SPEED STORM_DIR
1966012S10093 1966 3 SI WA NOT_NAMED 1966-01-11 13:00:00 NR -10.3000 93.4000 main 1139 1139 __________O___ -1 -10.3000 93.4000 7 21 246
1966012S10093 1966 3 SI WA NOT_NAMED 1966-01-11 15:00:00 NR -10.5935 92.7440 main 1210 1225 __________P___ -1 -10.5935 92.7440 7 35 246
1966012S10093 1966 3 SI WA NOT_NAMED 1966-01-11 16:00:00 NR -11.0032 91.7653 main 1304 1304 __________P___ -1 -10.7377 92.4204 7 44 246
1966012S10093 1966 3 SI WA NOT_NAMED 1966-01-11 18:00:00 TS -11.4997 90.7029 main 1423 1430 O________OP_O_ jtwc_sh SH151966 -11.1000 91.6000 -1 -11.8000 89.8000 TC 10 -11.0162 91.7918 7 -11.8000 89.8000 TC 10 21 245
1966012S10093 1966 3 SI WA NOT_NAMED 1966-01-11 21:00:00 TS -11.7332 90.1563 main 1475 1482 P________PP_P_ SH151966 -11.4158 90.7580 -1 -11.8425 89.7625 TC 10 -11.3969 90.9260 7 -11.8425 89.7625 TC 10 9 246
1966012S10093 1966 3 SI MM NOT_NAMED 1966-01-12 00:00:00 TS -11.8794 89.8218 main 1521 1521 O________OP_O_ jtwc_sh SH151966 -11.7000 90.1000 -1 -11.9000 89.7000 TC 10 -11.7129 90.2010 7 -11.9000 89.7000 TC 10 7 245
1966012S10093 1966 3 SI MM NOT_NAMED 1966-01-12 01:00:00 TS -11.9263 89.7309 main 1528 1528 P________PO_P_ SH151966 -11.7831 89.9511 -1 -11.9250 89.6693 TC 10 -11.8000 90.0000 7 -11.9250 89.6693 TC 10 5 242
1966012S10093 1966 3 SI MM NOT_NAMED 1966-01-12 03:00:00 TS -12.0085 89.5788 main 1544 1544 P________PP_P_ SH151966 -11.9296 89.7398 -1 -11.9850 89.5875 TC 10 -11.9449 89.6651 7 -11.9850 89.5875 TC 10 5 241
1966012S10093 1966 3 SI MM NOT_NAMED 1966-01-12 04:00:00 TS -12.0513 89.5023 main 1559 1559 P________PP_P_ SH151966 -11.9930 89.6588 -1 -12.0200 89.5345 TC 10 -12.0049 89.5269 7 -12.0200 89.5345 TC 10 5 241
1966012S10093 1966 3 SI MM NOT_NAMED 1966-01-12 06:00:00 TS -12.1406 89.3376 main 1574 1574 O________OP_O_ jtwc_sh SH151966 -12.1000 89.5000 -1 -12.1000 89.4000 TC 10 -12.1065 89.2961 7 -12.1000 89.4000 TC 10 6 243
1966012S10093 1966 3 SI MM NOT_NAMED 1966-01-12 09:00:00 TS -12.2749 89.0470 main 1613 1613 P________PP_P_ SH151966 -12.2000 89.1574 -1 -12.2275 89.1374 TC 12 -12.2315 89.0260 7 -12.2275 89.1374 TC 12 7 244
1966012S10093 1966 3 SI MM NOT_NAMED 1966-01-12 12:00:00 TS -12.4374 88.7116 main 1643 1643 O________OP_O_ jtwc_sh SH151966 -12.3000 88.8000 -1 -12.4000 88.8000 TC 15 -12.3540 88.7855 7 -12.4000 88.8000 TC 15 7 243
1966012S10093 1966 3 SI MM NOT_NAMED 1966-01-12 13:00:00 TS -12.5015 88.5936 main 1659 1659 P________PO_P_ SH151966 -12.3552 88.6833 -1 -12.4719 88.6807 TC 16 -12.4000 88.7000 7 -12.4719 88.6807 TC 16 8 240
1966012S10093 1966 3 SI MM NOT_NAMED 1966-01-12 15:00:00 TS -12.6459 88.3365 main 1690 1698 P________PP_P_ SH151966 -12.4850 88.4500 -1 -12.6350 88.4225 TC 20 -12.5167 88.4645 7 -12.6350 88.4225 TC 20 9 240
1966012S10093 1966 3 SI MM NOT_NAMED 1966-01-12 16:00:00 TS -12.7228 88.2034 main 1705 1705 P________PP_P_ SH151966 -12.5558 88.3333 -1 -12.7224 88.2854 TC 21 -12.5775 88.3450 7 -12.7224 88.2854 TC 21 9 239
1966012S10093 1966 3 SI MM NOT_NAMED 1966-01-12 18:00:00 TS -12.8776 87.9388 main 1744 1744 O________OP_O_ jtwc_sh SH151966 -12.7000 88.1000 -1 -12.9000 88.0000 TC 25 -12.7042 88.1047 7 -12.9000 88.0000 TC 25 9 240
1966012S10093 1966 3 SI MM NOT_NAMED 1966-01-12 21:00:00 TS -13.0959 87.5399 main 1791 1791 P________PP_P_ SH151966 -12.8925 87.7424 -1 -13.1425 87.5574 TC 30 -12.9067 87.7483 7 -13.1425 87.5574 TC 30 9 240
1966012S10093 1966 3 SI MM NOT_NAMED 1966-01-13 00:00:00 TS -13.3359 87.1344 main 1837 1837 O________OP_O_ jtwc_sh SH151966 -13.1000 87.4000 -1 -13.4000 87.1000 TC 35 -13.1242 87.4078 7 -13.4000 87.1000 TC 35 9 238
1966012S10093 1966 3 SI MM NOT_NAMED 1966-01-13 01:00:00 TS -13.4239 86.9956 main 1853 1853 P________PO_P_ SH151966 -13.1776 87.2916 -1 -13.4943 86.9447 TC 35 -13.2000 87.3000 7 -13.4943 86.9447 TC 35 10 235
1966012S10093 1966 3 SI MM NOT_NAMED 1966-01-13 03:00:00 TS -13.6296 86.7077 main 1892 1892 P________PP_P_ SH151966 -13.3425 87.0850 -1 -13.6925 86.6350 TC 37 -13.3551 87.1020 7 -13.6925 86.6350 TC 37 10 233
1966012S10093 1966 3 SI MM NOT_NAMED 1966-01-13 04:00:00 TS -13.7367 86.5676 main 1907 1907 P________PP_P_ SH151966 -13.4279 86.9866 -1 -13.7946 86.4842 TC 38 -13.4354 87.0073 7 -13.7946 86.4842 TC 38 10 230
1966012S10093 1966 3 SI MM NOT_NAMED 1966-01-13 06:00:00 TS -13.9449 86.3164 main 1946 1954 O________OP_O_ jtwc_sh SH151966 -13.6000 86.8000 -1 -14.0000 86.2000 TC 40 -13.6004 86.8241 7 -14.0000 86.2000 TC 40 9 227
1966012S10093 1966 3 SI MM NOT_NAMED 1966-01-13 09:00:00 TS -14.2326 86.0095 main 1993 1993 P________PP_P_ SH151966 -13.8499 86.5499 -1 -14.3025 85.8301 TC 45 -13.8555 86.5580 7 -14.3025 85.8301 TC 45 8 224
1966012S10093 1966 3 SI MM NOT_NAMED 1966-01-13 12:00:00 TS -14.4991 85.7628 main 2032 2032 O________OP_O_ jtwc_sh SH151966 -14.1000 86.3000 -1 -14.6000 85.5000 TC 50 -14.1141 86.2912 7 -14.6000 85.5000 TC 50 6 218
1966012S10093 1966 3 SI MM NOT_NAMED 1966-01-13 13:00:00 TS -14.5647 85.7376 main 2047 2047 P_________O___ SH151966 -14.1833 86.2057 -1 TC -14.2000 86.2000 7 TC 5 214
1966012S10093 1966 3 SI MM NOT_NAMED 1966-01-13 15:00:00 TS -14.7245 85.6034 main 2063 2063 P_________P___ SH151966 -14.3500 86.0075 -1 TC -14.3702 86.0121 7 TC 6 217
1966012S10093 1966 3 SI MM NOT_NAMED 1966-01-13 16:00:00 TS -14.7939 85.5585 main 2070 2070 P_________P___ SH151966 -14.4333 85.9054 -1 TC -14.4546 85.9157 7 TC 5 210
1966012S10093 1966 3 SI MM NOT_NAMED 1966-01-13 18:00:00 TS -14.9492 85.4696 main 2086 2094 O_________P___ jtwc_sh SH151966 -14.6000 85.7000 -1 -14.6222 85.7185 7 6 213
1966012S10093 1966 3 SI MM NOT_NAMED 1966-01-13 21:00:00 TS -15.2361 85.2605 main 2125 2133 P_________P___ SH151966 -14.7750 85.3996 -1 -14.8711 85.4145 7 8 213
1966012S10093 1966 3 SI MM NOT_NAMED 1966-01-14 00:00:00 TS -15.5920 85.0385 main 2179 2179 O_________P___ jtwc_sh SH151966 -15.1000 85.1000 -1 -15.1179 85.1041 7 12 204
1966012S10093 1966 3 SI MM NOT_NAMED 1966-01-14 01:00:00 NR -15.9413 84.9414 main 2210 2210 P_________O___ SH151966 -15.2821 85.0003 -1 -15.2000 85.0000 7 16 199
1966012S10093 1966 3 SI MM NOT_NAMED 1966-01-14 03:00:00 NR -16.3576 84.7576 main 2257 2265 P_____________ SH151966 -15.7501 84.8007 -1 7 9 213
1966012S10093 1966 3 SI MM NOT_NAMED 1966-01-14 06:00:00 NR -16.6000 84.5000 main 2296 O_____________ jtwc_sh SH141966 -16.6000 84.5000 -1 7 7 226

IBTrACS Databaseについて

本データベースは、米国NOAAが公開する1842年以降の世界の熱帯低気圧のベストトラックデータアーカイブInternational Best Track Archive for Climate Stewardship (IBTrACS)を、ウェブで閲覧しやすい形式に変換したものです。

最終更新日:2021-11-26